createdAt,value
2017-12-06T00:00:40.498Z,7.03
2017-12-06T00:01:42.976Z,6.97
2017-12-06T00:02:45.446Z,6.96
2017-12-06T00:03:47.933Z,6.95
2017-12-06T00:04:50.399Z,6.94
2017-12-06T00:05:52.862Z,6.96
2017-12-06T00:06:55.317Z,6.94
2017-12-06T00:07:57.778Z,6.88
2017-12-06T00:09:00.254Z,6.89
2017-12-06T00:10:02.729Z,6.89
2017-12-06T00:11:05.194Z,6.89
2017-12-06T00:13:49.401Z,6.91
2017-12-06T00:14:57.427Z,6.93
2017-12-06T00:15:59.888Z,6.92
2017-12-06T00:17:02.368Z,6.91
2017-12-06T00:18:04.871Z,6.89
2017-12-06T00:19:07.333Z,6.88
2017-12-06T00:20:09.816Z,6.86
2017-12-06T00:21:12.291Z,6.88
2017-12-06T00:22:14.766Z,6.83
2017-12-06T00:23:17.262Z,6.85
2017-12-06T00:24:19.732Z,6.81
2017-12-06T00:25:22.202Z,6.81
2017-12-06T00:26:24.666Z,6.83
2017-12-06T00:27:27.129Z,6.77
2017-12-06T00:28:29.614Z,6.78
2017-12-06T00:29:32.096Z,6.78
2017-12-06T00:30:34.559Z,6.78
2017-12-06T00:31:37.034Z,6.79
2017-12-06T00:32:39.533Z,6.81
2017-12-06T00:33:42.036Z,6.86
2017-12-06T00:34:44.520Z,6.82
2017-12-06T00:35:46.986Z,6.76
2017-12-06T00:36:49.444Z,6.76
2017-12-06T00:37:51.908Z,6.75
2017-12-06T00:38:54.397Z,6.76
2017-12-06T00:39:56.862Z,6.79
2017-12-06T00:40:59.352Z,6.77
2017-12-06T00:42:01.828Z,6.78
2017-12-06T00:43:04.318Z,6.81
2017-12-06T00:44:06.831Z,6.76
2017-12-06T00:45:09.294Z,6.81
2017-12-06T00:46:11.768Z,6.80
2017-12-06T00:47:14.256Z,6.77
2017-12-06T00:48:16.718Z,6.77
2017-12-06T00:49:19.203Z,6.73
2017-12-06T00:50:21.680Z,6.72
2017-12-06T00:51:24.157Z,6.75
2017-12-06T00:52:26.618Z,6.69
2017-12-06T00:53:29.093Z,6.69
2017-12-06T00:54:31.574Z,6.74
2017-12-06T00:55:34.039Z,6.76
2017-12-06T00:56:36.512Z,6.72
2017-12-06T00:57:38.984Z,6.73
2017-12-06T00:58:41.446Z,6.75
2017-12-06T00:59:43.930Z,6.76
2017-12-06T01:00:46.390Z,6.76
2017-12-06T01:01:48.875Z,6.78
2017-12-06T01:02:51.346Z,6.78
2017-12-06T01:03:53.814Z,6.86
2017-12-06T01:04:57.341Z,6.75
2017-12-06T01:05:59.807Z,6.84
2017-12-06T01:07:02.292Z,6.86
2017-12-06T01:08:04.762Z,6.84
2017-12-06T01:09:07.240Z,6.85
2017-12-06T01:10:09.747Z,6.84
2017-12-06T01:11:12.224Z,6.80
2017-12-06T01:12:14.698Z,6.83
2017-12-06T01:13:17.172Z,6.83
2017-12-06T01:14:19.662Z,6.84
2017-12-06T01:15:22.145Z,6.81
2017-12-06T01:16:24.607Z,6.77
2017-12-06T01:17:27.073Z,6.74
2017-12-06T01:18:29.537Z,6.68
2017-12-06T01:19:32.000Z,6.64
2017-12-06T01:20:34.553Z,6.68
2017-12-06T01:21:37.034Z,6.72
2017-12-06T01:22:39.502Z,6.65
2017-12-06T01:23:41.967Z,6.68
2017-12-06T01:24:44.440Z,6.70
2017-12-06T01:25:46.946Z,6.70
2017-12-06T01:26:49.404Z,6.73
2017-12-06T01:27:52.019Z,6.74
2017-12-06T01:28:54.491Z,6.71
2017-12-06T01:29:56.969Z,6.68
2017-12-06T01:30:59.445Z,6.71
2017-12-06T01:32:01.922Z,6.71
2017-12-06T01:33:04.388Z,6.65
2017-12-06T01:34:06.863Z,6.68
2017-12-06T01:35:09.332Z,6.71
2017-12-06T01:36:11.828Z,6.71
2017-12-06T01:37:14.311Z,6.74
2017-12-06T01:38:16.781Z,6.73
2017-12-06T01:39:19.238Z,6.75
2017-12-06T01:40:21.705Z,6.79
2017-12-06T01:41:24.190Z,6.79
2017-12-06T01:42:26.655Z,6.79
2017-12-06T01:43:29.114Z,6.76
2017-12-06T01:44:31.588Z,6.74
2017-12-06T01:45:34.047Z,6.68
2017-12-06T01:46:36.573Z,6.71
2017-12-06T01:47:39.054Z,6.68
2017-12-06T01:48:41.525Z,6.67
2017-12-06T01:49:43.989Z,6.71
2017-12-06T01:50:46.468Z,6.75
2017-12-06T01:51:48.950Z,6.70
2017-12-06T01:52:51.420Z,6.71
2017-12-06T01:53:53.881Z,6.72
2017-12-06T01:54:56.343Z,6.74
2017-12-06T01:55:58.821Z,6.74
2017-12-06T01:57:01.332Z,6.78
2017-12-06T01:58:03.805Z,6.78
2017-12-06T01:59:06.284Z,6.73
2017-12-06T02:00:08.739Z,6.77
2017-12-06T02:01:11.203Z,6.76
2017-12-06T02:02:13.701Z,6.79
2017-12-06T02:03:16.176Z,6.76
2017-12-06T02:04:18.635Z,6.75
2017-12-06T02:05:21.091Z,6.71
2017-12-06T02:06:23.585Z,6.70
2017-12-06T02:07:26.071Z,6.64
2017-12-06T02:08:28.548Z,6.61
2017-12-06T02:09:31.020Z,6.61
2017-12-06T02:10:33.488Z,6.60
2017-12-06T02:11:35.964Z,6.59
2017-12-06T02:12:38.455Z,6.62
2017-12-06T02:13:40.910Z,6.65
2017-12-06T02:14:43.390Z,6.59
2017-12-06T02:15:45.858Z,6.64
2017-12-06T02:16:48.319Z,6.65
2017-12-06T02:17:50.794Z,6.64
2017-12-06T02:18:53.277Z,6.66
2017-12-06T02:19:55.734Z,6.69
2017-12-06T02:20:58.211Z,6.72
2017-12-06T02:22:00.680Z,6.67
2017-12-06T02:23:03.158Z,6.66
2017-12-06T02:24:05.618Z,6.65
2017-12-06T02:25:08.078Z,6.66
2017-12-06T02:26:10.552Z,6.72
2017-12-06T02:27:13.020Z,6.70
2017-12-06T02:28:15.528Z,6.72
2017-12-06T02:29:17.999Z,6.68
2017-12-06T02:30:20.460Z,6.73
2017-12-06T02:31:22.931Z,6.75
2017-12-06T02:32:25.405Z,6.73
2017-12-06T02:33:27.892Z,6.70
2017-12-06T02:34:30.373Z,6.68
2017-12-06T02:35:32.834Z,6.70
2017-12-06T02:36:35.310Z,6.68
2017-12-06T02:37:37.789Z,6.69
2017-12-06T02:38:40.271Z,6.69
2017-12-06T02:39:54.568Z,6.73
2017-12-06T02:41:08.888Z,6.70
2017-12-06T02:42:23.226Z,6.70
2017-12-06T02:43:37.404Z,6.66
2017-12-06T02:44:51.661Z,6.61
2017-12-06T02:45:54.135Z,6.65
2017-12-06T02:46:56.595Z,6.70
2017-12-06T02:47:59.077Z,6.80
2017-12-06T02:49:01.612Z,6.75
2017-12-06T02:50:04.074Z,6.75
2017-12-06T02:51:06.556Z,6.79
2017-12-06T02:52:09.062Z,6.78
2017-12-06T02:53:11.503Z,6.73
2017-12-06T02:54:14.006Z,6.82
2017-12-06T02:55:16.472Z,6.78
2017-12-06T02:56:18.931Z,6.86
2017-12-06T02:57:21.393Z,6.84
2017-12-06T02:58:23.870Z,6.88
2017-12-06T02:59:26.377Z,6.72
2017-12-06T03:00:28.859Z,6.85
2017-12-06T03:01:31.323Z,6.85
2017-12-06T03:02:33.785Z,6.78
2017-12-06T03:03:36.264Z,6.74
2017-12-06T03:04:38.742Z,6.73
2017-12-06T03:05:41.225Z,6.79
2017-12-06T03:06:43.682Z,6.80
2017-12-06T03:07:46.891Z,6.72
2017-12-06T03:08:49.351Z,6.63
2017-12-06T03:09:51.854Z,6.63
2017-12-06T03:10:54.310Z,6.73
2017-12-06T03:11:56.784Z,6.70
2017-12-06T03:12:59.261Z,6.81
2017-12-06T03:14:01.742Z,6.75
2017-12-06T03:15:04.256Z,6.75
2017-12-06T03:16:06.736Z,6.82
2017-12-06T03:17:09.201Z,6.84
2017-12-06T03:18:11.669Z,6.81
2017-12-06T03:19:14.132Z,6.76
2017-12-06T03:20:16.633Z,6.74
2017-12-06T03:21:19.094Z,6.75
2017-12-06T03:22:21.573Z,6.72
2017-12-06T03:23:24.048Z,6.76
2017-12-06T03:24:26.524Z,6.74
2017-12-06T03:25:29.020Z,6.76
2017-12-06T03:26:31.508Z,6.71
2017-12-06T03:27:33.980Z,6.76
2017-12-06T03:28:36.468Z,6.77
2017-12-06T03:29:38.948Z,6.74
2017-12-06T03:30:41.441Z,6.74
2017-12-06T03:31:43.898Z,6.68
2017-12-06T03:32:46.359Z,6.71
2017-12-06T03:33:48.823Z,6.71
2017-12-06T03:34:51.304Z,6.69
2017-12-06T03:35:53.801Z,6.69
2017-12-06T03:36:56.296Z,6.75
2017-12-06T03:37:58.749Z,6.79
2017-12-06T03:39:01.227Z,6.74
2017-12-06T03:40:03.695Z,6.73
2017-12-06T03:41:06.200Z,6.75
2017-12-06T03:42:08.684Z,6.72
2017-12-06T03:43:11.192Z,6.73
2017-12-06T03:44:13.651Z,6.77
2017-12-06T03:45:16.110Z,6.75
2017-12-06T03:46:18.620Z,6.77
2017-12-06T03:47:21.084Z,6.79
2017-12-06T03:48:23.560Z,6.71
2017-12-06T03:49:26.017Z,6.69
2017-12-06T03:50:28.497Z,6.77
2017-12-06T03:51:30.988Z,6.76
2017-12-06T03:52:33.475Z,6.79
2017-12-06T03:53:35.952Z,6.81
2017-12-06T03:54:38.429Z,6.79
2017-12-06T03:55:41.036Z,6.78
2017-12-06T03:56:43.523Z,6.76
2017-12-06T03:57:46.676Z,6.75
2017-12-06T03:58:49.160Z,6.74
2017-12-06T03:59:51.630Z,6.74
2017-12-06T04:00:54.113Z,6.70
2017-12-06T04:01:56.657Z,6.70
2017-12-06T04:02:59.126Z,6.72
2017-12-06T04:04:01.665Z,6.74
2017-12-06T04:05:04.082Z,6.70
2017-12-06T04:06:06.560Z,6.72
2017-12-06T04:07:09.042Z,6.74
2017-12-06T04:08:11.518Z,6.74
2017-12-06T04:09:13.982Z,6.75
2017-12-06T04:10:16.438Z,6.74
2017-12-06T04:11:18.982Z,6.73
2017-12-06T04:12:21.477Z,6.71
2017-12-06T04:13:23.938Z,6.71
2017-12-06T04:14:26.413Z,6.73
2017-12-06T04:15:28.889Z,6.76
2017-12-06T04:16:31.370Z,6.73
2017-12-06T04:17:33.863Z,6.75
2017-12-06T04:18:36.340Z,6.78
2017-12-06T04:19:38.799Z,6.83
2017-12-06T04:20:41.268Z,6.83
2017-12-06T04:21:43.726Z,6.78
2017-12-06T04:22:46.236Z,6.78
2017-12-06T04:23:48.716Z,6.76
2017-12-06T04:24:51.170Z,6.78
2017-12-06T04:25:53.641Z,6.78
2017-12-06T04:26:56.099Z,6.72
2017-12-06T04:27:58.597Z,6.78
2017-12-06T04:29:01.078Z,6.75
2017-12-06T04:30:03.557Z,6.78
2017-12-06T04:31:06.029Z,6.81
2017-12-06T04:32:08.494Z,6.81
2017-12-06T04:33:10.970Z,6.84
2017-12-06T04:34:13.449Z,6.83
2017-12-06T04:35:15.911Z,6.83
2017-12-06T04:36:18.478Z,6.86
2017-12-06T04:37:20.947Z,6.85
2017-12-06T04:38:23.444Z,6.86
2017-12-06T04:39:25.902Z,6.90
2017-12-06T04:40:28.359Z,6.90
2017-12-06T04:41:30.825Z,6.85
2017-12-06T04:42:33.285Z,6.82
2017-12-06T04:43:35.787Z,6.87
2017-12-06T04:44:38.261Z,6.85
2017-12-06T04:45:40.732Z,6.83
2017-12-06T04:46:43.190Z,6.86
2017-12-06T04:47:46.105Z,6.84
2017-12-06T04:48:48.625Z,6.88
2017-12-06T04:49:51.100Z,6.90
2017-12-06T04:50:53.581Z,6.95
2017-12-06T04:51:56.074Z,6.90
2017-12-06T04:52:58.548Z,6.91
2017-12-06T04:54:01.114Z,6.92
2017-12-06T04:55:03.624Z,6.87
2017-12-06T04:56:06.086Z,6.91
2017-12-06T04:57:08.552Z,6.88
2017-12-06T04:58:11.018Z,6.89
2017-12-06T04:59:13.515Z,6.92
2017-12-06T05:00:16.026Z,6.91
2017-12-06T05:01:18.590Z,6.87
2017-12-06T05:02:21.052Z,6.91
2017-12-06T05:03:23.530Z,6.97
2017-12-06T05:04:26.010Z,6.99
2017-12-06T05:05:28.500Z,7.00
2017-12-06T05:06:30.978Z,6.99
2017-12-06T05:07:33.446Z,6.99
2017-12-06T05:08:35.924Z,6.99
2017-12-06T05:09:38.424Z,7.01
2017-12-06T05:10:40.915Z,7.03
2017-12-06T05:11:43.389Z,7.03
2017-12-06T05:12:45.847Z,7.04
2017-12-06T05:13:48.317Z,6.97
2017-12-06T05:14:50.813Z,6.86
2017-12-06T05:15:53.294Z,6.90
2017-12-06T05:16:55.762Z,6.87
2017-12-06T05:17:58.241Z,6.94
2017-12-06T05:19:00.734Z,6.91
2017-12-06T05:20:03.218Z,6.95
2017-12-06T05:21:05.676Z,6.94
2017-12-06T05:22:08.155Z,6.94
2017-12-06T05:23:10.718Z,6.95
2017-12-06T05:24:13.182Z,6.93
2017-12-06T05:25:15.659Z,6.92
2017-12-06T05:26:18.115Z,7.00
2017-12-06T05:27:20.609Z,7.04
2017-12-06T05:28:23.067Z,7.02
2017-12-06T05:29:25.552Z,6.99
2017-12-06T05:30:28.048Z,6.98
2017-12-06T05:31:30.536Z,7.00
2017-12-06T05:32:32.996Z,7.01
2017-12-06T05:33:35.481Z,7.01
2017-12-06T05:34:37.942Z,6.96
2017-12-06T05:35:40.437Z,6.98
2017-12-06T05:36:42.898Z,6.99
2017-12-06T05:37:45.354Z,6.98
2017-12-06T05:38:47.833Z,6.94
2017-12-06T05:39:50.320Z,6.92
2017-12-06T05:40:52.803Z,6.95
2017-12-06T05:41:55.275Z,7.00
2017-12-06T05:42:57.735Z,6.99
2017-12-06T05:44:00.204Z,6.95
2017-12-06T05:45:02.673Z,6.94
2017-12-06T05:46:05.189Z,6.97
2017-12-06T05:47:07.646Z,7.04
2017-12-06T05:48:10.114Z,7.01
2017-12-06T05:49:12.575Z,7.01
2017-12-06T05:50:15.050Z,7.02
2017-12-06T05:51:17.529Z,7.02
2017-12-06T05:52:20.000Z,7.04
2017-12-06T05:53:22.457Z,6.98
2017-12-06T05:54:24.942Z,7.01
2017-12-06T05:55:27.403Z,7.02
2017-12-06T05:56:29.902Z,7.05
2017-12-06T05:57:32.396Z,7.04
2017-12-06T05:58:34.873Z,7.11
2017-12-06T05:59:37.360Z,7.15
2017-12-06T06:00:39.823Z,7.12
2017-12-06T06:01:42.372Z,7.16
2017-12-06T06:02:44.860Z,7.16
2017-12-06T06:03:47.322Z,7.14
2017-12-06T06:04:49.778Z,7.10
2017-12-06T06:05:52.247Z,7.11
2017-12-06T06:06:54.732Z,7.10
2017-12-06T06:07:57.214Z,7.13
2017-12-06T06:08:59.674Z,7.11
2017-12-06T06:10:02.148Z,7.08
2017-12-06T06:11:04.607Z,7.09
2017-12-06T06:12:07.109Z,7.09
2017-12-06T06:13:09.592Z,7.12
2017-12-06T06:14:12.069Z,7.11
2017-12-06T06:15:14.564Z,7.12
2017-12-06T06:16:17.039Z,7.18
2017-12-06T06:17:19.518Z,7.17
2017-12-06T06:18:22.002Z,7.20
2017-12-06T06:19:24.485Z,7.21
2017-12-06T06:20:26.942Z,7.16
2017-12-06T06:21:29.398Z,7.12
2017-12-06T06:22:31.895Z,7.16
2017-12-06T06:23:34.391Z,7.17
2017-12-06T06:24:36.870Z,7.18
2017-12-06T06:25:39.334Z,7.17
2017-12-06T06:26:41.820Z,7.24
2017-12-06T06:27:44.325Z,7.24
2017-12-06T06:28:46.874Z,7.29
2017-12-06T06:29:49.349Z,7.28
2017-12-06T06:30:51.826Z,7.25
2017-12-06T06:31:54.321Z,7.28
2017-12-06T06:32:56.807Z,7.26
2017-12-06T06:33:59.297Z,7.24
2017-12-06T06:35:01.817Z,7.21
2017-12-06T06:36:04.295Z,7.20
2017-12-06T06:37:06.758Z,7.17
2017-12-06T06:38:09.261Z,7.19
2017-12-06T06:39:11.734Z,7.14
2017-12-06T06:40:14.222Z,7.13
2017-12-06T06:41:16.718Z,7.14
2017-12-06T06:42:19.193Z,7.19
2017-12-06T06:43:21.679Z,7.24
2017-12-06T06:44:24.163Z,7.27
2017-12-06T06:45:26.626Z,7.26
2017-12-06T06:46:29.101Z,7.27
2017-12-06T06:47:31.568Z,7.23
2017-12-06T06:48:34.070Z,7.20
2017-12-06T06:49:36.531Z,7.17
2017-12-06T06:50:39.023Z,7.09
2017-12-06T06:51:41.568Z,7.15
2017-12-06T06:52:44.052Z,7.28
2017-12-06T06:53:46.586Z,7.30
2017-12-06T06:54:49.066Z,7.34
2017-12-06T06:55:51.542Z,7.38
2017-12-06T06:56:54.015Z,7.31
2017-12-06T06:57:56.521Z,7.32
2017-12-06T06:58:59.002Z,7.29
2017-12-06T07:00:01.476Z,7.32
2017-12-06T07:01:03.955Z,7.40
2017-12-06T07:02:06.433Z,7.37
2017-12-06T07:03:08.920Z,7.37
2017-12-06T07:04:11.497Z,7.36
2017-12-06T07:05:15.169Z,7.41
2017-12-06T07:06:17.632Z,7.43
2017-12-06T07:07:20.098Z,7.40
2017-12-06T07:08:22.681Z,7.35
2017-12-06T07:09:25.162Z,7.43
2017-12-06T07:10:27.691Z,7.47
2017-12-06T07:11:30.164Z,7.47
2017-12-06T07:12:32.640Z,7.46
2017-12-06T07:13:35.117Z,7.47
2017-12-06T07:14:37.621Z,7.48
2017-12-06T07:15:40.112Z,7.50
2017-12-06T07:16:42.592Z,7.48
2017-12-06T07:17:45.058Z,7.44
2017-12-06T07:18:47.528Z,7.43
2017-12-06T07:19:50.006Z,7.37
2017-12-06T07:20:52.492Z,7.40
2017-12-06T07:21:56.855Z,7.41
2017-12-06T07:23:06.063Z,7.43
2017-12-06T07:25:21.816Z,7.42
2017-12-06T07:26:24.279Z,7.38
2017-12-06T07:27:30.734Z,7.38
2017-12-06T07:28:33.464Z,7.42
2017-12-06T07:29:36.104Z,7.42
2017-12-06T07:30:38.597Z,7.35
2017-12-06T07:31:41.282Z,7.38
2017-12-06T07:32:43.746Z,7.35
2017-12-06T07:33:46.241Z,7.44
2017-12-06T07:34:48.699Z,7.43
2017-12-06T07:35:51.182Z,7.42
2017-12-06T07:36:53.638Z,7.42
2017-12-06T07:37:56.098Z,7.43
2017-12-06T07:38:58.573Z,7.45
2017-12-06T07:40:01.041Z,7.41
2017-12-06T07:41:03.549Z,7.42
2017-12-06T07:42:06.007Z,7.39
2017-12-06T07:43:08.486Z,7.48
2017-12-06T07:44:10.943Z,7.43
2017-12-06T07:45:13.412Z,7.44
2017-12-06T07:46:15.894Z,7.47
2017-12-06T07:47:18.353Z,7.45
2017-12-06T07:48:20.814Z,7.46
2017-12-06T07:49:23.289Z,7.46
2017-12-06T07:50:25.751Z,7.47
2017-12-06T07:51:28.248Z,7.51
2017-12-06T07:52:30.724Z,7.48
2017-12-06T07:53:33.178Z,7.52
2017-12-06T07:54:35.634Z,7.50
2017-12-06T07:55:39.230Z,7.52
2017-12-06T07:56:41.724Z,7.52
2017-12-06T07:57:44.209Z,7.53
2017-12-06T07:58:46.666Z,7.60
2017-12-06T07:59:49.141Z,7.59
2017-12-06T08:00:51.602Z,7.59
2017-12-06T08:01:54.078Z,7.61
2017-12-06T08:02:56.549Z,7.52
2017-12-06T08:03:59.011Z,7.55
2017-12-06T08:05:01.483Z,7.58
2017-12-06T08:06:03.972Z,7.64
2017-12-06T08:07:06.467Z,7.64
2017-12-06T08:08:08.938Z,7.63
2017-12-06T08:09:11.402Z,7.57
2017-12-06T08:10:13.857Z,7.61
2017-12-06T08:11:16.345Z,7.60
2017-12-06T08:12:18.827Z,7.60
2017-12-06T08:13:21.301Z,7.60
2017-12-06T08:14:23.759Z,7.67
2017-12-06T08:15:26.245Z,7.68
2017-12-06T08:16:28.720Z,7.67
2017-12-06T08:17:31.204Z,7.70
2017-12-06T08:18:33.667Z,7.68
2017-12-06T08:19:36.128Z,7.70
2017-12-06T08:20:38.590Z,7.67
2017-12-06T08:21:41.079Z,7.66
2017-12-06T08:22:43.569Z,7.69
2017-12-06T08:23:46.032Z,7.74
2017-12-06T08:24:48.494Z,7.70
2017-12-06T08:25:50.954Z,7.71
2017-12-06T08:26:53.419Z,7.67
2017-12-06T08:27:55.908Z,7.67
2017-12-06T08:28:58.366Z,7.78
2017-12-06T08:30:00.835Z,7.86
2017-12-06T08:31:03.310Z,7.89
2017-12-06T08:32:05.778Z,8.02
2017-12-06T08:33:08.268Z,7.96
2017-12-06T08:34:10.741Z,7.97
2017-12-06T08:35:13.212Z,7.95
2017-12-06T08:36:15.680Z,8.01
2017-12-06T08:37:18.466Z,8.00
2017-12-06T08:38:22.344Z,7.96
2017-12-06T08:39:24.933Z,8.10
2017-12-06T08:40:27.421Z,8.03
2017-12-06T08:41:29.879Z,8.00
2017-12-06T08:42:32.341Z,7.98
2017-12-06T08:43:34.822Z,7.96
2017-12-06T08:44:37.297Z,7.97
2017-12-06T08:45:39.777Z,7.99
2017-12-06T08:46:42.337Z,8.00
2017-12-06T08:47:44.924Z,8.01
2017-12-06T08:48:47.531Z,7.96
2017-12-06T08:49:49.998Z,8.00
2017-12-06T08:50:52.454Z,7.96
2017-12-06T08:51:54.914Z,7.92
2017-12-06T08:52:57.379Z,7.94
2017-12-06T08:53:59.868Z,7.85
2017-12-06T08:55:02.322Z,7.81
2017-12-06T08:56:04.796Z,7.85
2017-12-06T08:57:07.308Z,7.85
2017-12-06T08:58:09.771Z,7.91
2017-12-06T08:59:12.320Z,7.81
2017-12-06T09:00:14.794Z,7.84
2017-12-06T09:01:18.282Z,7.88
2017-12-06T09:02:20.805Z,7.91
2017-12-06T09:03:23.308Z,7.96
2017-12-06T09:04:25.791Z,7.91
2017-12-06T09:05:28.256Z,7.94
2017-12-06T09:06:30.740Z,7.92
2017-12-06T09:07:33.251Z,7.91
2017-12-06T09:08:35.769Z,7.87
2017-12-06T09:09:38.361Z,7.87
2017-12-06T09:10:40.891Z,7.89
2017-12-06T09:11:43.360Z,7.92
2017-12-06T09:12:45.828Z,7.88
2017-12-06T09:13:48.743Z,7.88
2017-12-06T09:14:51.260Z,7.86
2017-12-06T09:15:53.813Z,7.87
2017-12-06T09:16:56.292Z,7.90
2017-12-06T09:17:58.750Z,7.97
2017-12-06T09:19:01.384Z,8.00
2017-12-06T09:20:03.958Z,8.00
2017-12-06T09:21:06.487Z,8.01
2017-12-06T09:22:09.632Z,8.06
2017-12-06T09:23:12.086Z,8.03
2017-12-06T09:24:14.534Z,8.06
2017-12-06T09:25:17.042Z,8.05
2017-12-06T09:26:19.722Z,8.05
2017-12-06T09:27:22.204Z,8.07
2017-12-06T09:28:24.695Z,8.08
2017-12-06T09:29:27.151Z,8.02
2017-12-06T09:30:29.627Z,8.08
2017-12-06T09:31:32.139Z,8.10
2017-12-06T09:32:34.719Z,8.08
2017-12-06T09:33:37.194Z,8.05
2017-12-06T09:34:39.694Z,8.01
2017-12-06T09:35:42.336Z,8.00
2017-12-06T09:36:44.886Z,8.01
2017-12-06T09:37:47.380Z,8.08
2017-12-06T09:38:49.846Z,8.09
2017-12-06T09:39:52.429Z,8.05
2017-12-06T09:40:54.903Z,8.10
2017-12-06T09:41:57.394Z,8.08
2017-12-06T09:42:59.866Z,8.10
2017-12-06T09:44:02.321Z,8.15
2017-12-06T09:45:04.786Z,8.17
2017-12-06T09:46:07.526Z,8.17
2017-12-06T09:47:10.016Z,8.19
2017-12-06T09:48:12.541Z,8.20
2017-12-06T09:49:15.017Z,8.24
2017-12-06T09:50:17.471Z,8.27
2017-12-06T09:51:19.947Z,8.22
2017-12-06T09:52:22.399Z,8.23
2017-12-06T09:53:24.869Z,8.16
2017-12-06T09:54:27.327Z,8.12
2017-12-06T09:55:29.783Z,8.06
2017-12-06T09:56:32.259Z,8.04
2017-12-06T09:57:34.711Z,7.95
2017-12-06T09:58:37.204Z,7.96
2017-12-06T09:59:39.781Z,7.98
2017-12-06T10:00:42.256Z,8.07
2017-12-06T10:01:44.734Z,8.08
2017-12-06T10:02:47.215Z,8.06
2017-12-06T10:03:49.675Z,8.07
2017-12-06T10:04:52.173Z,8.03
2017-12-06T10:05:54.627Z,8.04
2017-12-06T10:06:57.116Z,8.06
2017-12-06T10:07:59.577Z,8.10
2017-12-06T10:09:02.105Z,8.13
2017-12-06T10:10:04.564Z,8.18
2017-12-06T10:11:07.026Z,8.15
2017-12-06T10:12:09.510Z,8.21
2017-12-06T10:13:11.967Z,8.24
2017-12-06T10:14:14.476Z,8.17
2017-12-06T10:15:16.953Z,8.19
2017-12-06T10:16:19.424Z,8.23
2017-12-06T10:17:21.903Z,8.19
2017-12-06T10:18:24.369Z,8.18
2017-12-06T10:19:26.887Z,8.18
2017-12-06T10:20:29.376Z,8.15
2017-12-06T10:21:31.840Z,8.13
2017-12-06T10:22:34.363Z,8.24
2017-12-06T10:23:36.830Z,8.21
2017-12-06T10:24:39.320Z,8.21
2017-12-06T10:25:41.793Z,8.25
2017-12-06T10:26:44.281Z,8.25
2017-12-06T10:27:46.777Z,8.26
2017-12-06T10:28:49.267Z,8.30
2017-12-06T10:29:51.745Z,8.34
2017-12-06T10:30:54.249Z,8.35
2017-12-06T10:31:56.928Z,8.37
2017-12-06T10:32:59.432Z,8.34
2017-12-06T10:34:01.913Z,8.44
2017-12-06T10:35:04.392Z,8.41
2017-12-06T10:36:06.859Z,8.44
2017-12-06T10:37:09.337Z,8.43
2017-12-06T10:38:11.819Z,8.50
2017-12-06T10:39:14.278Z,8.54
2017-12-06T10:40:16.756Z,8.47
2017-12-06T10:41:19.229Z,8.49
2017-12-06T10:42:21.692Z,8.50
2017-12-06T10:43:24.178Z,8.55
2017-12-06T10:44:26.638Z,8.63
2017-12-06T10:45:29.094Z,8.67
2017-12-06T10:46:31.569Z,8.71
2017-12-06T10:47:34.013Z,8.72
2017-12-06T10:48:36.538Z,8.72
2017-12-06T10:49:39.005Z,8.74
2017-12-06T10:50:41.513Z,8.68
2017-12-06T10:51:43.962Z,8.70
2017-12-06T10:52:46.418Z,8.70
2017-12-06T10:53:48.921Z,8.58
2017-12-06T10:54:51.374Z,8.63
2017-12-06T10:55:53.855Z,8.62
2017-12-06T10:56:56.329Z,8.57
2017-12-06T10:57:58.808Z,8.58
2017-12-06T10:59:01.307Z,8.49
2017-12-06T11:00:03.772Z,8.54
2017-12-06T11:01:06.250Z,8.58
2017-12-06T11:02:08.743Z,8.58
2017-12-06T11:03:11.213Z,8.56
2017-12-06T11:04:13.716Z,8.53
2017-12-06T11:05:16.192Z,8.56
2017-12-06T11:06:18.669Z,8.59
2017-12-06T11:07:21.117Z,8.62
2017-12-06T11:08:23.601Z,8.73
2017-12-06T11:09:26.085Z,8.84
2017-12-06T11:10:28.566Z,8.79
2017-12-06T11:11:31.019Z,8.70
2017-12-06T11:12:33.486Z,8.63
2017-12-06T11:13:35.964Z,8.65
2017-12-06T11:14:38.461Z,8.74
2017-12-06T11:15:40.936Z,8.69
2017-12-06T11:16:43.408Z,8.69
2017-12-06T11:17:45.872Z,8.71
2017-12-06T11:18:48.349Z,8.83
2017-12-06T11:19:50.937Z,8.84
2017-12-06T11:20:53.425Z,8.84
2017-12-06T11:21:55.883Z,8.86
2017-12-06T11:22:58.343Z,8.86
2017-12-06T11:24:00.799Z,8.85
2017-12-06T11:25:03.290Z,8.84
2017-12-06T11:26:05.742Z,8.86
2017-12-06T11:27:08.297Z,8.87
2017-12-06T11:28:10.755Z,8.89
2017-12-06T11:29:13.229Z,8.94
2017-12-06T11:30:15.716Z,8.96
2017-12-06T11:31:18.179Z,8.98
2017-12-06T11:32:20.638Z,9.04
2017-12-06T11:33:23.094Z,8.97
2017-12-06T11:34:25.581Z,8.92
2017-12-06T11:35:28.166Z,8.89
2017-12-06T11:36:30.638Z,8.86
2017-12-06T11:37:33.102Z,8.88
2017-12-06T11:38:35.556Z,8.96
2017-12-06T11:39:38.010Z,8.96
2017-12-06T11:40:40.482Z,8.87
2017-12-06T11:41:42.949Z,8.82
2017-12-06T11:42:45.421Z,8.75
2017-12-06T11:43:47.879Z,8.76
2017-12-06T11:44:50.410Z,8.89
2017-12-06T11:45:52.890Z,8.98
2017-12-06T11:46:55.343Z,8.88
2017-12-06T11:47:57.870Z,8.78
2017-12-06T11:49:00.353Z,8.78
2017-12-06T11:50:02.819Z,8.76
2017-12-06T11:51:05.308Z,8.77
2017-12-06T11:52:07.776Z,8.77
2017-12-06T11:53:10.259Z,8.79
2017-12-06T11:54:12.728Z,8.85
2017-12-06T11:55:15.190Z,8.97
2017-12-06T11:56:17.670Z,8.87
2017-12-06T11:57:20.147Z,8.85
2017-12-06T11:58:22.608Z,8.79
2017-12-06T11:59:25.080Z,8.75
2017-12-06T12:00:27.554Z,8.75
2017-12-06T12:01:30.088Z,8.82
2017-12-06T12:02:32.568Z,8.89
2017-12-06T12:03:35.027Z,8.90
2017-12-06T12:04:37.505Z,8.89
2017-12-06T12:05:39.966Z,8.92
2017-12-06T12:06:42.480Z,9.01
2017-12-06T12:07:45.174Z,9.04
2017-12-06T12:08:47.639Z,9.12
2017-12-06T12:09:50.099Z,9.02
2017-12-06T12:10:52.563Z,8.99
2017-12-06T12:11:55.044Z,9.01
2017-12-06T12:12:57.568Z,8.94
2017-12-06T12:14:00.061Z,8.98
2017-12-06T12:15:02.549Z,9.02
2017-12-06T12:16:04.998Z,9.06
2017-12-06T12:17:07.492Z,9.08
2017-12-06T12:18:09.948Z,8.99
2017-12-06T12:19:12.445Z,8.96
2017-12-06T12:20:14.916Z,8.93
2017-12-06T12:21:17.388Z,8.97
2017-12-06T12:22:19.885Z,8.98
2017-12-06T12:23:22.350Z,9.09
2017-12-06T12:24:24.833Z,9.13
2017-12-06T12:25:27.315Z,9.16
2017-12-06T12:26:29.845Z,9.21
2017-12-06T12:27:32.331Z,9.16
2017-12-06T12:28:34.795Z,9.15
2017-12-06T12:29:37.278Z,9.04
2017-12-06T12:30:39.738Z,9.01
2017-12-06T12:31:42.204Z,8.97
2017-12-06T12:32:44.682Z,8.98
2017-12-06T12:33:47.149Z,9.00
2017-12-06T12:34:49.624Z,9.07
2017-12-06T12:35:52.097Z,9.08
2017-12-06T12:36:54.554Z,9.08
2017-12-06T12:37:57.049Z,9.05
2017-12-06T12:38:59.515Z,8.99
2017-12-06T12:40:01.971Z,9.02
2017-12-06T12:41:04.445Z,9.07
2017-12-06T12:42:06.902Z,9.10
2017-12-06T12:43:09.659Z,9.07
2017-12-06T12:44:12.218Z,9.06
2017-12-06T12:45:14.688Z,9.02
2017-12-06T12:46:17.156Z,9.01
2017-12-06T12:47:19.670Z,8.96
2017-12-06T12:48:22.168Z,8.97
2017-12-06T12:49:24.831Z,8.96
2017-12-06T12:50:27.465Z,8.98
2017-12-06T12:51:29.922Z,9.07
2017-12-06T12:52:32.494Z,9.13
2017-12-06T12:53:34.989Z,9.13
2017-12-06T12:54:37.459Z,9.12
2017-12-06T12:55:39.944Z,9.08
2017-12-06T12:56:42.411Z,9.06
2017-12-06T12:57:45.157Z,9.01
2017-12-06T12:58:47.655Z,8.97
2017-12-06T12:59:50.132Z,9.03
2017-12-06T13:00:52.591Z,9.08
2017-12-06T13:01:55.071Z,9.17
2017-12-06T13:02:57.527Z,9.21
2017-12-06T13:04:00.023Z,9.19
2017-12-06T13:05:02.501Z,9.26
2017-12-06T13:06:04.967Z,9.33
2017-12-06T13:07:07.461Z,9.36
2017-12-06T13:08:09.919Z,9.39
2017-12-06T13:09:12.398Z,9.34
2017-12-06T13:10:14.876Z,9.23
2017-12-06T13:11:17.341Z,9.29
2017-12-06T13:12:19.807Z,9.24
2017-12-06T13:13:22.285Z,9.24
2017-12-06T13:14:24.868Z,9.22
2017-12-06T13:15:27.344Z,9.22
2017-12-06T13:16:29.827Z,9.21
2017-12-06T13:17:32.295Z,9.20
2017-12-06T13:18:34.803Z,9.13
2017-12-06T13:19:37.316Z,9.21
2017-12-06T13:20:39.785Z,9.24
2017-12-06T13:21:42.310Z,9.27
2017-12-06T13:22:44.788Z,9.31
2017-12-06T13:23:47.260Z,9.32
2017-12-06T13:24:49.738Z,9.26
2017-12-06T13:25:52.208Z,9.27
2017-12-06T13:26:54.667Z,9.30
2017-12-06T13:27:57.136Z,9.26
2017-12-06T13:28:59.613Z,9.16
2017-12-06T13:30:02.101Z,9.18
2017-12-06T13:31:04.562Z,9.17
2017-12-06T13:32:07.015Z,9.08
2017-12-06T13:33:09.484Z,9.12
2017-12-06T13:34:11.947Z,9.10
2017-12-06T13:35:14.435Z,9.13
2017-12-06T13:36:16.934Z,9.19
2017-12-06T13:37:19.405Z,9.19
2017-12-06T13:38:21.882Z,9.17
2017-12-06T13:39:24.350Z,9.23
2017-12-06T13:40:26.953Z,9.21
2017-12-06T13:41:29.411Z,9.13
2017-12-06T13:42:31.887Z,9.16
2017-12-06T13:43:34.412Z,9.20
2017-12-06T13:44:36.870Z,9.23
2017-12-06T13:45:39.364Z,9.29
2017-12-06T13:46:41.822Z,9.29
2017-12-06T13:47:44.280Z,9.34
2017-12-06T13:48:46.750Z,9.31
2017-12-06T13:49:49.225Z,9.26
2017-12-06T13:50:51.721Z,9.23
2017-12-06T13:51:54.229Z,9.28
2017-12-06T13:52:56.711Z,9.28
2017-12-06T13:53:59.175Z,9.33
2017-12-06T13:55:01.644Z,9.31
2017-12-06T13:56:04.123Z,9.27